Huvudsida
METAR-TAF:

METAR-TAF

Flygplatser :

Riyadh, Saudiarabien

latitud: 24-43N, longitud: 046-44E, höjd: 635 m

METAR: saknas

Tid: 11:21 (08:21 UTC)

Väderprognos

Denna rapport gjordes för 9 timmar och 21 minuter sedan, klockan 23:00 UTC
Prognos gäller från 22 kl. 00 UTC till 23 kl. 06 UTC
Vind 3 kt varierande vindriktning
Sikt: 8000 m
Blir
från 22 kl. 06 UTC till 22 kl. 08 UTC
Vind 8 kt från sydväst i byarna ända upp till 18 kt
Temporärt
från 22 kl. 06 UTC till 22 kl. 16 UTC
Sikt: 3000 m
utbrett stoft, högt damm drev
Blir
från 22 kl. 18 UTC till 22 kl. 20 UTC
Vind 3 kt varierande vindriktning

TAF: OERY 212300Z 2200/2306 VRB03KT 8000 NSC BECMG 2206/2208 22008G18KT TEMPO 2206/2216 3000 DU BLDU BECMG 2218/2220 VRB03KT

Aktuella väderrapporter och prognoser från 4000 flygplatser (METAR- och TAF-rapporter).

De tillgängliga stationerna syns som gula och röda prickar på kartan.

För musen över prickarna för att se namnen på stationerna.

Klicka sedan för att få väderrapporter och prognoser.

För att ändra kartan: Klicka på de gröna knapparna med ett svart kors på för att zooma in; den gröna knappen med ett streck på för att zooma ut; eller på de gröna pilarna för angränsande kartor.


METAR-TAF: